PER weather

Perth International Airport
Perth, Western Australia, Australia

Public forecast

Using degrees Celsius for public forecast. Weather courtesy of forecast.io.

METAR (pilot weather report)

Retrieved 2017/12/16 02:30 UTC (0 seconds ago):

YPPH 160230Z 28007KT CAVOK 27/12 Q1006 NOSIG

TAF (pilot weather forecast)

Forecast is more than 12 hours old.

Retrieved 2017/12/15 00:00 UTC (1 day ago):

TAF YPPH 152307Z 1600/1706 15007KT CAVOK FM160100 25007KT CAVOK FM160500 24017KT 9999 SCT030 FM161200 26014G25KT 9999 -SHRA SCT025 BKN035 FM170000 27020G30KT 9999 -SHRA SCT025 BKN050 INTER 1616/1706 26020G30KT 3000 SHRA SCT015